Time,TemperatureF,DewpointF,PressureIn,WindDirection,WindDirectionDegrees,WindSpeedMPH,WindSpeedGustMPH,Humidity,HourlyPrecipIn,Conditions,Clouds,dailyrainin,SoftwareType,DateUTC
2013-02-24 00:01:00,27.6,21.3,20.39,NNE,32,0.0,0.0,77,0.00,,,0.00,Wunderground v.1.15,2013-02-24 06:01:00,
2013-02-24 00:07:00,27.4,21.4,20.39,NNE,32,0.0,0.0,78,0.00,,,0.00,Wunderground v.1.15,2013-02-24 06:07:00,
2013-02-24 00:12:00,27.2,21.2,18.04,NNE,32,0.0,0.0,78,0.00,,,0.00,Wunderground v.1.15,2013-02-24 06:12:00,
2013-02-24 00:17:00,27.1,21.2,18.04,NNE,32,0.0,0.0,78,0.00,,,0.00,Wunderground v.1.15,2013-02-24 06:17:00,
2013-02-24 00:23:00,26.9,21.0,18.04,NNE,32,0.0,0.0,78,0.00,,,0.00,Wunderground v.1.15,2013-02-24 06:23:00,
2013-02-24 00:29:00,26.8,20.9,18.04,NNE,32,0.0,0.0,78,0.00,,,0.00,Wunderground v.1.15,2013-02-24 06:29:00,
2013-02-24 00:34:00,26.7,20.8,19.29,NNE,32,0.0,0.0,78,0.00,,,0.00,Wunderground v.1.15,2013-02-24 06:34:00,
2013-02-24 00:39:00,26.6,21.0,19.29,NNE,32,0.0,0.0,79,0.00,,,0.00,Wunderground v.1.15,2013-02-24 06:39:00,
2013-02-24 00:45:00,26.4,20.8,18.33,NNE,32,0.0,0.0,79,0.00,,,0.00,Wunderground v.1.15,2013-02-24 06:45:00,
2013-02-24 00:50:00,26.3,20.7,18.67,NNE,32,0.0,0.0,79,0.00,,,0.00,Wunderground v.1.15,2013-02-24 06:50:00,
2013-02-24 00:55:00,26.3,21.0,18.67,NNE,32,0.0,0.0,80,0.00,,,0.00,Wunderground v.1.15,2013-02-24 06:55:00,
2013-02-24 01:01:00,26.2,20.9,18.67,NNE,32,0.0,0.0,80,0.00,,,0.00,Wunderground v.1.15,2013-02-24 07:01:00,
2013-02-24 01:06:00,26.1,20.8,18.67,NNE,32,0.0,0.0,80,0.00,,,0.00,Wunderground v.1.15,2013-02-24 07:06:00,
2013-02-24 01:11:00,26.0,20.7,18.67,NNE,32,0.0,0.0,80,0.00,,,0.00,Wunderground v.1.15,2013-02-24 07:11:00,
2013-02-24 01:17:00,25.8,20.5,18.67,NNE,32,0.0,0.0,80,0.00,,,0.00,Wunderground v.1.15,2013-02-24 07:17:00,
2013-02-24 01:22:00,25.7,20.4,18.67,NNE,32,0.0,0.0,80,0.00,,,0.00,Wunderground v.1.15,2013-02-24 07:22:00,
2013-02-24 01:27:00,25.6,20.3,18.67,NNE,32,0.0,0.0,80,0.00,,,0.00,Wunderground v.1.15,2013-02-24 07:27:00,
2013-02-24 01:33:00,25.5,20.2,18.67,NNE,32,0.0,0.0,80,0.00,,,0.00,Wunderground v.1.15,2013-02-24 07:33:00,
2013-02-24 01:38:00,25.4,20.4,18.67,NNE,32,0.0,0.0,81,0.00,,,0.00,Wunderground v.1.15,2013-02-24 07:38:00,
2013-02-24 01:43:00,25.3,20.3,18.67,NNE,32,0.0,0.0,81,0.00,,,0.00,Wunderground v.1.15,2013-02-24 07:43:00,
2013-02-24 01:48:00,25.2,20.2,18.67,NNE,32,0.0,0.0,81,0.00,,,0.00,Wunderground v.1.15,2013-02-24 07:48:00,
2013-02-24 01:54:00,25.1,20.1,18.67,NNE,32,0.0,0.0,81,0.00,,,0.00,Wunderground v.1.15,2013-02-24 07:54:00,
2013-02-24 01:59:00,25.1,20.1,18.67,NNE,32,0.0,0.0,81,0.00,,,0.00,Wunderground v.1.15,2013-02-24 07:59:00,
2013-02-24 02:04:00,25.0,20.0,18.67,NNE,32,0.0,0.0,81,0.00,,,0.00,Wunderground v.1.15,2013-02-24 08:04:00,
2013-02-24 02:09:00,24.9,20.2,18.67,NNE,32,0.0,0.0,82,0.00,,,0.00,Wunderground v.1.15,2013-02-24 08:09:00,
2013-02-24 02:14:00,24.9,20.2,18.67,NNE,32,0.0,0.0,82,0.00,,,0.00,Wunderground v.1.15,2013-02-24 08:14:00,
2013-02-24 02:19:00,24.8,20.1,18.67,NNE,32,0.0,0.0,82,0.00,,,0.00,Wunderground v.1.15,2013-02-24 08:19:00,
2013-02-24 02:24:00,24.8,20.1,18.67,NNE,32,0.0,0.0,82,0.00,,,0.00,Wunderground v.1.15,2013-02-24 08:24:00,
2013-02-24 02:29:00,24.7,20.0,18.67,NNE,32,0.0,0.0,82,0.00,,,0.00,Wunderground v.1.15,2013-02-24 08:29:00,
2013-02-24 02:34:00,24.7,20.0,18.67,NNE,32,0.0,0.0,82,0.00,,,0.00,Wunderground v.1.15,2013-02-24 08:34:00,
2013-02-24 02:39:00,24.6,19.9,18.67,NNE,32,0.0,0.0,82,0.00,,,0.00,Wunderground v.1.15,2013-02-24 08:39:00,
2013-02-24 02:44:00,24.5,20.1,18.67,NNE,32,0.0,0.0,83,0.00,,,0.00,Wunderground v.1.15,2013-02-24 08:44:00,
2013-02-24 02:49:00,24.5,19.8,18.67,NNE,32,0.0,0.0,82,0.00,,,0.00,Wunderground v.1.15,2013-02-24 08:49:00,
2013-02-24 02:54:00,24.4,19.7,18.67,NNE,32,0.0,0.0,82,0.00,,,0.00,Wunderground v.1.15,2013-02-24 08:54:00,
2013-02-24 02:59:00,24.3,19.9,18.67,NNE,32,0.0,0.0,83,0.00,,,0.00,Wunderground v.1.15,2013-02-24 08:59:00,
2013-02-24 03:04:00,24.3,19.9,18.67,NNE,32,0.0,0.0,83,0.00,,,0.00,Wunderground v.1.15,2013-02-24 09:04:00,
2013-02-24 03:09:00,24.2,19.8,18.67,NNE,32,0.0,0.0,83,0.00,,,0.00,Wunderground v.1.15,2013-02-24 09:09:00,
2013-02-24 03:14:00,24.1,19.7,18.67,NNE,32,0.0,0.0,83,0.00,,,0.00,Wunderground v.1.15,2013-02-24 09:14:00,
2013-02-24 03:19:00,24.0,19.6,18.67,NNE,32,0.0,0.0,83,0.00,,,0.00,Wunderground v.1.15,2013-02-24 09:19:00,
2013-02-24 03:24:00,24.0,19.6,18.67,NNE,32,0.0,0.0,83,0.00,,,0.00,Wunderground v.1.15,2013-02-24 09:24:00,
2013-02-24 03:29:00,23.9,19.5,18.63,NNE,32,0.0,0.0,83,0.00,,,0.00,Wunderground v.1.15,2013-02-24 09:29:00,
2013-02-24 03:34:00,23.9,19.5,18.63,NNE,32,0.0,0.0,83,0.00,,,0.00,Wunderground v.1.15,2013-02-24 09:34:00,
2013-02-24 03:39:00,23.9,19.5,18.63,NNE,32,0.0,0.0,83,0.00,,,0.00,Wunderground v.1.15,2013-02-24 09:39:00,
2013-02-24 03:44:00,23.9,19.8,18.63,NNE,32,0.0,0.0,84,0.00,,,0.00,Wunderground v.1.15,2013-02-24 09:44:00,
2013-02-24 03:49:00,23.9,19.8,18.63,NNE,32,0.0,0.0,84,0.00,,,0.00,Wunderground v.1.15,2013-02-24 09:49:00,
2013-02-24 03:54:00,24.0,19.9,18.63,NNE,32,0.0,0.0,84,0.00,,,0.00,Wunderground v.1.15,2013-02-24 09:54:00,
2013-02-24 03:59:00,24.1,20.0,18.63,NNE,32,0.0,0.0,84,0.00,,,0.00,Wunderground v.1.15,2013-02-24 09:59:00,
2013-02-24 04:04:00,24.1,20.2,18.63,NNE,32,0.0,0.0,85,0.00,,,0.00,Wunderground v.1.15,2013-02-24 10:04:00,
2013-02-24 04:09:00,24.1,20.2,19.20,NNE,32,0.0,0.0,85,0.00,,,0.00,Wunderground v.1.15,2013-02-24 10:09:00,
2013-02-24 04:14:00,24.1,20.2,19.20,NNE,32,0.0,0.0,85,0.00,,,0.00,Wunderground v.1.15,2013-02-24 10:14:00,
2013-02-24 04:19:00,24.2,20.3,19.20,NNE,32,0.0,0.0,85,0.00,,,0.00,Wunderground v.1.15,2013-02-24 10:19:00,
2013-02-24 04:24:00,24.1,20.2,19.20,NNE,32,0.0,0.0,85,0.00,,,0.00,Wunderground v.1.15,2013-02-24 10:24:00,
2013-02-24 04:29:00,24.1,20.2,16.70,NNE,32,0.0,0.0,85,0.00,,,0.00,Wunderground v.1.15,2013-02-24 10:29:00,
2013-02-24 04:34:00,24.1,20.2,16.70,NNE,32,0.0,0.0,85,0.00,,,0.00,Wunderground v.1.15,2013-02-24 10:34:00,
2013-02-24 04:39:00,24.1,20.2,16.70,NNE,32,0.0,0.0,85,0.00,,,0.00,Wunderground v.1.15,2013-02-24 10:39:00,
2013-02-24 04:44:00,24.2,20.3,16.70,NNE,32,0.0,0.0,85,0.00,,,0.00,Wunderground v.1.15,2013-02-24 10:44:00,
2013-02-24 04:49:00,24.3,20.7,16.70,NNE,32,0.0,0.0,86,0.00,,,0.00,Wunderground v.1.15,2013-02-24 10:49:00,
2013-02-24 04:54:00,24.3,20.7,16.70,NNE,32,0.0,0.0,86,0.00,,,0.00,Wunderground v.1.15,2013-02-24 10:54:00,
2013-02-24 04:59:00,24.4,20.8,16.70,NNE,32,0.0,0.0,86,0.00,,,0.00,Wunderground v.1.15,2013-02-24 10:59:00,
2013-02-24 05:04:00,24.4,20.8,16.70,NNE,32,0.0,0.0,86,0.00,,,0.00,Wunderground v.1.15,2013-02-24 11:04:00,
2013-02-24 05:09:00,24.4,20.8,16.70,NNE,32,0.0,0.0,86,0.00,,,0.00,Wunderground v.1.15,2013-02-24 11:09:00,
2013-02-24 05:14:00,24.4,20.8,16.77,NNE,32,0.0,0.0,86,0.00,,,0.00,Wunderground v.1.15,2013-02-24 11:14:00,
2013-02-24 05:19:00,24.4,20.8,16.77,NNE,32,0.0,0.0,86,0.00,,,0.00,Wunderground v.1.15,2013-02-24 11:19:00,
2013-02-24 05:24:00,24.3,20.7,16.77,NNE,32,0.0,0.0,86,0.00,,,0.00,Wunderground v.1.15,2013-02-24 11:24:00,
2013-02-24 05:29:00,24.3,20.7,16.77,NNE,32,0.0,0.0,86,0.00,,,0.00,Wunderground v.1.15,2013-02-24 11:29:00,
2013-02-24 05:34:00,24.1,20.5,16.77,NNE,32,0.0,0.0,86,0.00,,,0.00,Wunderground v.1.15,2013-02-24 11:34:00,
2013-02-24 05:39:00,24.0,20.4,16.77,NNE,32,0.0,0.0,86,0.00,,,0.00,Wunderground v.1.15,2013-02-24 11:39:00,
2013-02-24 05:44:00,23.9,20.3,16.77,NNE,32,0.0,0.0,86,0.00,,,0.00,Wunderground v.1.15,2013-02-24 11:44:00,
2013-02-24 05:49:00,23.8,20.2,16.77,NNE,32,0.0,0.0,86,0.00,,,0.00,Wunderground v.1.15,2013-02-24 11:49:00,
2013-02-24 05:55:00,23.7,20.1,16.77,NNE,32,0.0,0.0,86,0.00,,,0.00,Wunderground v.1.15,2013-02-24 11:55:00,
2013-02-24 05:59:00,23.6,20.0,16.77,NNE,32,0.0,0.0,86,0.00,,,0.00,Wunderground v.1.15,2013-02-24 11:59:00,
2013-02-24 06:04:00,23.5,19.9,16.77,NNE,32,0.0,0.0,86,0.00,,,0.00,Wunderground v.1.15,2013-02-24 12:04:00,
2013-02-24 06:09:00,23.4,19.8,16.77,NNE,32,0.0,0.0,86,0.00,,,0.00,Wunderground v.1.15,2013-02-24 12:09:00,
2013-02-24 06:14:00,23.3,19.7,16.77,NNE,32,0.0,0.0,86,0.00,,,0.00,Wunderground v.1.15,2013-02-24 12:14:00,
2013-02-24 06:19:00,23.2,19.6,16.77,NNE,32,0.0,0.0,86,0.00,,,0.00,Wunderground v.1.15,2013-02-24 12:19:00,
2013-02-24 06:24:00,23.1,19.5,16.77,NNE,32,0.0,0.0,86,0.00,,,0.00,Wunderground v.1.15,2013-02-24 12:24:00,
2013-02-24 06:29:00,23.1,19.5,16.77,NNE,32,0.0,0.0,86,0.00,,,0.00,Wunderground v.1.15,2013-02-24 12:29:00,
2013-02-24 06:35:00,23.0,19.4,16.77,NNE,32,0.0,0.0,86,0.00,,,0.00,Wunderground v.1.15,2013-02-24 12:35:00,
2013-02-24 06:40:00,23.0,19.4,16.77,NNE,32,0.0,0.0,86,0.00,,,0.00,Wunderground v.1.15,2013-02-24 12:40:00,
2013-02-24 06:45:00,23.0,19.4,16.77,NNE,32,0.0,0.0,86,0.00,,,0.00,Wunderground v.1.15,2013-02-24 12:45:00,
2013-02-24 06:50:00,23.0,19.4,16.77,NNE,32,0.0,0.0,86,0.00,,,0.00,Wunderground v.1.15,2013-02-24 12:50:00,
2013-02-24 06:55:00,22.9,19.3,16.77,NNE,32,0.0,0.0,86,0.00,,,0.00,Wunderground v.1.15,2013-02-24 12:55:00,
2013-02-24 07:00:00,22.9,19.3,16.77,NNE,32,0.0,0.0,86,0.00,,,0.00,Wunderground v.1.15,2013-02-24 13:00:00,
2013-02-24 07:05:00,22.9,19.3,16.77,NNE,32,0.0,0.0,86,0.00,,,0.00,Wunderground v.1.15,2013-02-24 13:05:00,
2013-02-24 07:10:00,22.9,19.3,16.77,NNE,32,0.0,0.0,86,0.00,,,0.00,Wunderground v.1.15,2013-02-24 13:10:00,
2013-02-24 07:15:00,22.9,19.6,16.77,NNE,32,0.0,0.0,87,0.00,,,0.00,Wunderground v.1.15,2013-02-24 13:15:00,
2013-02-24 07:20:00,23.2,19.9,16.77,NNE,32,0.0,0.0,87,0.00,,,0.00,Wunderground v.1.15,2013-02-24 13:20:00,
2013-02-24 07:25:00,24.0,21.2,16.77,NNE,32,0.0,1.0,89,0.00,,,0.00,Wunderground v.1.15,2013-02-24 13:25:00,
2013-02-24 07:30:00,26.8,24.3,16.77,NNE,32,0.0,0.0,90,0.00,,,0.00,Wunderground v.1.15,2013-02-24 13:30:00,
2013-02-24 07:35:00,29.0,26.4,16.77,NNE,32,0.0,0.0,90,0.00,,,0.00,Wunderground v.1.15,2013-02-24 13:35:00,
2013-02-24 07:40:00,30.5,27.9,16.77,NNE,32,0.0,0.0,90,0.00,,,0.00,Wunderground v.1.15,2013-02-24 13:40:00,
2013-02-24 07:45:00,31.5,28.6,16.77,NNE,32,0.0,1.0,89,0.00,,,0.00,Wunderground v.1.15,2013-02-24 13:45:00,
2013-02-24 07:50:00,32.5,29.6,16.77,NNE,32,0.0,0.0,89,0.00,,,0.00,Wunderground v.1.15,2013-02-24 13:50:00,
2013-02-24 07:55:00,33.4,30.2,16.77,NNE,32,0.0,1.0,88,0.00,,,0.00,Wunderground v.1.15,2013-02-24 13:55:00,
2013-02-24 08:00:00,34.4,30.9,16.77,NNE,32,0.0,0.0,87,0.00,,,0.00,Wunderground v.1.15,2013-02-24 14:00:00,
2013-02-24 08:05:00,35.6,31.5,16.77,NNE,32,0.0,0.0,85,0.00,,,0.00,Wunderground v.1.15,2013-02-24 14:05:00,
2013-02-24 08:10:00,37.0,32.3,16.77,NNE,32,0.0,0.0,83,0.00,,,0.00,Wunderground v.1.15,2013-02-24 14:10:00,
2013-02-24 08:15:00,38.0,32.4,16.77,NNE,32,0.0,0.0,80,0.00,,,0.00,Wunderground v.1.15,2013-02-24 14:15:00,
2013-02-24 08:20:00,39.0,33.0,16.77,NNE,32,0.0,0.0,79,0.00,,,0.00,Wunderground v.1.15,2013-02-24 14:20:00,
2013-02-24 08:25:00,39.7,32.8,16.77,NNE,32,0.0,1.0,76,0.00,,,0.00,Wunderground v.1.15,2013-02-24 14:25:00,
2013-02-24 08:30:00,40.5,33.2,16.77,NNE,32,0.0,0.0,75,0.00,,,0.00,Wunderground v.1.15,2013-02-24 14:30:00,
2013-02-24 08:35:00,41.1,33.1,16.77,NNE,32,0.0,2.0,73,0.00,,,0.00,Wunderground v.1.15,2013-02-24 14:35:00,
2013-02-24 08:40:00,41.8,33.1,16.77,ESE,102,0.0,0.0,71,0.00,,,0.00,Wunderground v.1.15,2013-02-24 14:40:00,
2013-02-24 08:45:00,42.2,32.8,16.77,SE,145,0.0,2.0,69,0.00,,,0.00,Wunderground v.1.15,2013-02-24 14:45:00,
2013-02-24 08:50:00,42.5,32.7,16.77,ESE,114,0.0,6.0,68,0.00,,,0.00,Wunderground v.1.15,2013-02-24 14:50:00,
2013-02-24 08:55:00,42.9,33.4,16.77,NE,55,0.0,6.0,69,0.00,,,0.00,Wunderground v.1.15,2013-02-24 14:55:00,
2013-02-24 09:01:00,43.3,33.1,16.77,ESE,111,0.0,2.0,67,0.00,,,0.00,Wunderground v.1.15,2013-02-24 15:01:00,
2013-02-24 09:05:00,43.5,32.9,16.77,SE,128,0.0,5.0,66,0.00,,,0.00,Wunderground v.1.15,2013-02-24 15:05:00,
2013-02-24 09:10:00,43.5,32.9,16.77,SE,146,1.0,3.0,66,0.00,,,0.00,Wunderground v.1.15,2013-02-24 15:10:00,
2013-02-24 09:15:00,43.8,32.8,16.77,SE,144,0.0,3.0,65,0.00,,,0.00,Wunderground v.1.15,2013-02-24 15:15:00,
2013-02-24 09:21:00,44.5,33.8,16.77,ESE,110,0.0,3.0,66,0.00,,,0.00,Wunderground v.1.15,2013-02-24 15:21:00,
2013-02-24 09:26:00,45.0,34.3,16.77,West,273,0.0,3.0,66,0.00,,,0.00,Wunderground v.1.15,2013-02-24 15:26:00,
2013-02-24 09:31:00,45.2,33.7,16.77,SE,144,0.0,1.0,64,0.00,,,0.00,Wunderground v.1.15,2013-02-24 15:31:00,
2013-02-24 09:36:00,45.6,34.1,16.77,South,182,0.0,2.0,64,0.00,,,0.00,Wunderground v.1.15,2013-02-24 15:36:00,
2013-02-24 09:41:00,45.9,34.0,16.77,SSE,160,1.0,5.0,63,0.00,,,0.00,Wunderground v.1.15,2013-02-24 15:41:00,
2013-02-24 09:46:00,46.0,34.1,16.77,ESE,115,0.0,5.0,63,0.00,,,0.00,Wunderground v.1.15,2013-02-24 15:46:00,
2013-02-24 09:51:00,46.7,34.8,16.77,WSW,251,0.0,1.0,63,0.00,,,0.00,Wunderground v.1.15,2013-02-24 15:51:00,
2013-02-24 09:56:00,47.6,35.2,16.77,East,82,1.0,3.0,62,0.00,,,0.00,Wunderground v.1.15,2013-02-24 15:56:00,
2013-02-24 10:01:00,48.3,35.5,16.77,SE,133,0.0,1.0,61,0.00,,,0.00,Wunderground v.1.15,2013-02-24 16:01:00,
2013-02-24 10:06:00,48.7,35.0,16.77,SSE,165,0.0,5.0,59,0.00,,,0.00,Wunderground v.1.15,2013-02-24 16:06:00,
2013-02-24 10:11:00,48.8,35.5,16.77,SSW,203,0.0,1.0,60,0.00,,,0.00,Wunderground v.1.15,2013-02-24 16:11:00,
2013-02-24 10:16:00,49.0,35.3,16.77,SSW,193,0.0,3.0,59,0.00,,,0.00,Wunderground v.1.15,2013-02-24 16:16:00,
2013-02-24 10:21:00,49.5,35.8,16.77,SSW,202,1.0,1.0,59,0.00,,,0.00,Wunderground v.1.15,2013-02-24 16:21:00,
2013-02-24 10:26:00,50.0,35.4,16.77,SE,124,1.0,3.0,57,0.00,,,0.00,Wunderground v.1.15,2013-02-24 16:26:00,
2013-02-24 10:31:00,50.6,36.4,16.77,South,185,0.0,1.0,58,0.00,,,0.00,Wunderground v.1.15,2013-02-24 16:31:00,
2013-02-24 10:36:00,50.9,36.2,16.77,SE,144,0.0,3.0,57,0.00,,,0.00,Wunderground v.1.15,2013-02-24 16:36:00,
2013-02-24 10:41:00,51.1,35.9,16.77,East,98,0.0,3.0,56,0.00,,,0.00,Wunderground v.1.15,2013-02-24 16:41:00,
2013-02-24 10:46:00,51.5,35.9,16.77,South,187,0.0,3.0,55,0.00,,,0.00,Wunderground v.1.15,2013-02-24 16:46:00,
2013-02-24 10:51:00,51.6,36.4,16.77,SE,145,0.0,2.0,56,0.00,,,0.00,Wunderground v.1.15,2013-02-24 16:51:00,
2013-02-24 10:56:00,52.2,37.4,16.77,SW,227,1.0,2.0,57,0.00,,,0.00,Wunderground v.1.15,2013-02-24 16:56:00,
2013-02-24 11:01:00,52.6,36.9,16.77,ESE,117,1.0,3.0,55,0.00,,,0.00,Wunderground v.1.15,2013-02-24 17:01:00,
2013-02-24 11:06:00,52.5,36.8,16.77,ENE,63,0.0,4.0,55,0.00,,,0.00,Wunderground v.1.15,2013-02-24 17:06:00,
2013-02-24 11:11:00,53.2,37.0,16.77,NE,34,1.0,2.0,54,0.00,,,0.00,Wunderground v.1.15,2013-02-24 17:11:00,
2013-02-24 11:16:00,53.7,37.0,16.77,South,182,0.0,2.0,53,0.00,,,0.00,Wunderground v.1.15,2013-02-24 17:16:00,
2013-02-24 11:21:00,54.2,36.9,16.77,East,88,0.0,0.0,52,0.00,,,0.00,Wunderground v.1.15,2013-02-24 17:21:00,
2013-02-24 11:26:00,54.2,36.5,16.77,ENE,69,0.0,5.0,51,0.00,,,0.00,Wunderground v.1.15,2013-02-24 17:26:00,
2013-02-24 11:31:00,54.1,36.4,16.77,SE,142,0.0,5.0,51,0.00,,,0.00,Wunderground v.1.15,2013-02-24 17:31:00,
2013-02-24 11:36:00,54.1,36.9,16.77,South,184,0.0,5.0,52,0.00,,,0.00,Wunderground v.1.15,2013-02-24 17:36:00,
2013-02-24 11:41:00,54.4,37.1,16.77,SSW,201,0.0,3.0,52,0.00,,,0.00,Wunderground v.1.15,2013-02-24 17:41:00,
2013-02-24 11:46:00,55.0,37.7,16.77,ENE,61,0.0,4.0,52,0.00,,,0.00,Wunderground v.1.15,2013-02-24 17:46:00,
2013-02-24 11:51:00,56.0,38.1,16.77,South,178,1.0,1.0,51,0.00,,,0.00,Wunderground v.1.15,2013-02-24 17:51:00,
2013-02-24 11:56:00,56.4,37.5,16.77,South,190,0.0,4.0,49,0.00,,,0.00,Wunderground v.1.15,2013-02-24 17:56:00,
2013-02-24 12:01:00,56.3,37.4,16.77,South,188,0.0,3.0,49,0.00,,,0.00,Wunderground v.1.15,2013-02-24 18:01:00,
2013-02-24 12:06:00,56.7,38.3,16.77,ESE,122,1.0,4.0,50,0.00,,,0.00,Wunderground v.1.15,2013-02-24 18:06:00,
2013-02-24 12:11:00,56.5,37.6,16.77,ENE,59,0.0,5.0,49,0.00,,,0.00,Wunderground v.1.15,2013-02-24 18:11:00,
2013-02-24 12:16:00,56.2,37.3,16.77,ENE,62,0.0,5.0,49,0.00,,,0.00,Wunderground v.1.15,2013-02-24 18:16:00,
2013-02-24 12:21:00,57.1,37.6,16.77,SSE,157,0.0,1.0,48,0.00,,,0.00,Wunderground v.1.15,2013-02-24 18:21:00,
2013-02-24 12:26:00,57.3,38.8,16.77,ENE,78,0.0,6.0,50,0.00,,,0.00,Wunderground v.1.15,2013-02-24 18:26:00,
2013-02-24 12:31:00,58.1,37.4,16.77,East,90,1.0,3.0,46,0.00,,,0.00,Wunderground v.1.15,2013-02-24 18:31:00,
2013-02-24 12:36:00,57.6,37.0,16.77,South,183,0.0,4.0,46,0.00,,,0.00,Wunderground v.1.15,2013-02-24 18:36:00,
2013-02-24 12:41:00,57.6,37.0,16.77,SSE,153,0.0,1.0,46,0.00,,,0.00,Wunderground v.1.15,2013-02-24 18:41:00,
2013-02-24 12:46:00,58.3,37.6,16.77,ESE,122,1.0,5.0,46,0.00,,,0.00,Wunderground v.1.15,2013-02-24 18:46:00,
2013-02-24 12:51:00,58.9,38.1,16.77,WSW,241,4.0,4.0,46,0.00,,,0.00,Wunderground v.1.15,2013-02-24 18:51:00,
2013-02-24 12:56:00,58.1,36.9,16.77,ENE,74,0.0,7.0,45,0.00,,,0.00,Wunderground v.1.15,2013-02-24 18:56:00,
2013-02-24 13:02:00,57.8,36.6,16.77,NE,49,2.0,5.0,45,0.00,,,0.00,Wunderground v.1.15,2013-02-24 19:02:00,
2013-02-24 13:07:00,57.6,37.0,16.77,ESE,112,0.0,5.0,46,0.00,,,0.00,Wunderground v.1.15,2013-02-24 19:07:00,
2013-02-24 13:12:00,57.7,37.0,16.77,SE,138,1.0,2.0,46,0.00,,,0.00,Wunderground v.1.15,2013-02-24 19:12:00,
2013-02-24 13:17:00,58.5,37.2,16.77,SE,137,0.0,5.0,45,0.00,,,0.00,Wunderground v.1.15,2013-02-24 19:17:00,
2013-02-24 13:22:00,59.0,37.1,16.77,SSW,209,1.0,3.0,44,0.00,,,0.00,Wunderground v.1.15,2013-02-24 19:22:00,
2013-02-24 13:27:00,59.0,35.9,16.77,WNW,288,0.0,6.0,42,0.00,,,0.00,Wunderground v.1.15,2013-02-24 19:27:00,
2013-02-24 13:32:00,59.7,37.2,16.77,South,186,3.0,3.0,43,0.00,,,0.00,Wunderground v.1.15,2013-02-24 19:32:00,
2013-02-24 13:37:00,59.3,36.2,16.77,ESE,122,1.0,4.0,42,0.00,,,0.00,Wunderground v.1.15,2013-02-24 19:37:00,
2013-02-24 13:42:00,58.3,36.5,16.77,SE,138,0.0,3.0,44,0.00,,,0.00,Wunderground v.1.15,2013-02-24 19:42:00,
2013-02-24 13:47:00,57.9,36.7,16.77,SSW,195,3.0,4.0,45,0.00,,,0.00,Wunderground v.1.15,2013-02-24 19:47:00,
2013-02-24 13:52:00,58.1,35.7,16.77,ENE,65,0.0,2.0,43,0.00,,,0.00,Wunderground v.1.15,2013-02-24 19:52:00,
2013-02-24 13:57:00,58.4,36.6,16.77,ESE,118,0.0,4.0,44,0.00,,,0.00,Wunderground v.1.15,2013-02-24 19:57:00,
2013-02-24 14:02:00,59.0,37.1,16.77,SE,137,0.0,2.0,44,0.00,,,0.00,Wunderground v.1.15,2013-02-24 20:02:00,
2013-02-24 14:07:00,58.5,36.1,16.77,South,170,0.0,5.0,43,0.00,,,0.00,Wunderground v.1.15,2013-02-24 20:07:00,
2013-02-24 14:12:00,58.2,36.4,16.77,SSE,159,0.0,3.0,44,0.00,,,0.00,Wunderground v.1.15,2013-02-24 20:12:00,
2013-02-24 14:17:00,58.0,36.2,16.77,East,99,2.0,3.0,44,0.00,,,0.00,Wunderground v.1.15,2013-02-24 20:17:00,
2013-02-24 14:22:00,58.3,35.9,16.77,SW,225,1.0,2.0,43,0.00,,,0.00,Wunderground v.1.15,2013-02-24 20:22:00,
2013-02-24 14:27:00,58.6,36.7,16.77,ESE,116,0.0,7.0,44,0.00,,,0.00,Wunderground v.1.15,2013-02-24 20:27:00,
2013-02-24 14:32:00,58.7,35.7,16.77,ENE,65,0.0,3.0,42,0.00,,,0.00,Wunderground v.1.15,2013-02-24 20:32:00,
2013-02-24 14:37:00,58.7,36.2,16.77,SE,137,1.0,3.0,43,0.00,,,0.00,Wunderground v.1.15,2013-02-24 20:37:00,
2013-02-24 14:42:00,58.7,36.2,16.77,SE,142,3.0,4.0,43,0.00,,,0.00,Wunderground v.1.15,2013-02-24 20:42:00,
2013-02-24 14:47:00,58.7,36.2,16.77,East,80,0.0,4.0,43,0.00,,,0.00,Wunderground v.1.15,2013-02-24 20:47:00,
2013-02-24 14:52:00,58.7,36.2,16.77,SSW,211,2.0,2.0,43,0.00,,,0.00,Wunderground v.1.15,2013-02-24 20:52:00,
2013-02-24 14:57:00,58.7,36.2,16.77,ESE,113,0.0,3.0,43,0.00,,,0.00,Wunderground v.1.15,2013-02-24 20:57:00,
2013-02-24 15:02:00,58.6,36.2,16.77,ENE,74,0.0,5.0,43,0.00,,,0.00,Wunderground v.1.15,2013-02-24 21:02:00,
2013-02-24 15:07:00,58.5,36.1,16.77,East,100,0.0,5.0,43,0.00,,,0.00,Wunderground v.1.15,2013-02-24 21:07:00,
2013-02-24 15:12:00,58.5,35.5,16.77,South,190,0.0,2.0,42,0.00,,,0.00,Wunderground v.1.15,2013-02-24 21:12:00,
2013-02-24 15:17:00,58.4,35.4,16.77,SW,234,0.0,5.0,42,0.00,,,0.00,Wunderground v.1.15,2013-02-24 21:17:00,
2013-02-24 15:22:00,58.3,35.9,16.77,South,176,0.0,2.0,43,0.00,,,0.00,Wunderground v.1.15,2013-02-24 21:22:00,
2013-02-24 15:27:00,58.3,35.3,16.77,SSE,147,1.0,3.0,42,0.00,,,0.00,Wunderground v.1.15,2013-02-24 21:27:00,
2013-02-24 15:32:00,58.2,35.8,16.77,SE,140,0.0,1.0,43,0.00,,,0.00,Wunderground v.1.15,2013-02-24 21:32:00,
2013-02-24 15:37:00,58.1,35.7,16.77,ESE,109,0.0,3.0,43,0.00,,,0.00,Wunderground v.1.15,2013-02-24 21:37:00,
2013-02-24 15:42:00,58.1,35.7,16.77,NE,51,0.0,7.0,43,0.00,,,0.00,Wunderground v.1.15,2013-02-24 21:42:00,
2013-02-24 15:47:00,58.0,35.6,16.77,ESE,105,0.0,7.0,43,0.00,,,0.00,Wunderground v.1.15,2013-02-24 21:47:00,
2013-02-24 15:52:00,58.0,35.6,16.77,ESE,107,1.0,3.0,43,0.00,,,0.00,Wunderground v.1.15,2013-02-24 21:52:00,
2013-02-24 15:57:00,57.9,35.5,16.77,SE,137,1.0,3.0,43,0.00,,,0.00,Wunderground v.1.15,2013-02-24 21:57:00,
2013-02-24 16:02:00,57.8,35.4,16.77,SE,129,0.0,3.0,43,0.00,,,0.00,Wunderground v.1.15,2013-02-24 22:02:00,
2013-02-24 16:07:00,57.8,36.0,16.77,South,176,1.0,3.0,44,0.00,,,0.00,Wunderground v.1.15,2013-02-24 22:07:00,
2013-02-24 16:12:00,57.7,35.3,16.77,South,187,1.0,6.0,43,0.00,,,0.00,Wunderground v.1.15,2013-02-24 22:12:00,
2013-02-24 16:17:00,57.7,35.9,16.77,ENE,64,0.0,6.0,44,0.00,,,0.00,Wunderground v.1.15,2013-02-24 22:17:00,
2013-02-24 16:22:00,57.7,35.3,16.77,ESE,112,1.0,4.0,43,0.00,,,0.00,Wunderground v.1.15,2013-02-24 22:22:00,
2013-02-24 16:27:00,57.7,35.9,16.77,West,270,1.0,4.0,44,0.00,,,0.00,Wunderground v.1.15,2013-02-24 22:27:00,
2013-02-24 16:32:00,57.6,35.2,16.77,NE,52,0.0,7.0,43,0.00,,,0.00,Wunderground v.1.15,2013-02-24 22:32:00,
2013-02-24 16:37:00,57.6,34.7,16.77,ENE,59,0.0,7.0,42,0.00,,,0.00,Wunderground v.1.15,2013-02-24 22:37:00,
2013-02-24 16:42:00,57.5,34.6,16.77,South,176,4.0,6.0,42,0.00,,,0.00,Wunderground v.1.15,2013-02-24 22:42:00,
2013-02-24 16:47:00,57.5,34.6,16.77,SSW,199,0.0,6.0,42,0.00,,,0.00,Wunderground v.1.15,2013-02-24 22:47:00,
2013-02-24 16:52:00,57.4,34.5,24.49,ESE,106,0.0,2.0,42,0.00,,,0.00,Wunderground v.1.15,2013-02-24 22:52:00,
2013-02-24 16:57:00,57.3,34.4,24.08,South,189,0.0,6.0,42,0.00,,,0.00,Wunderground v.1.15,2013-02-24 22:57:00,
2013-02-24 17:02:00,57.2,34.3,24.50,SE,134,0.0,2.0,42,0.00,,,0.00,Wunderground v.1.15,2013-02-24 23:02:00,
2013-02-24 17:07:00,57.1,34.8,24.50,South,175,0.0,3.0,43,0.00,,,0.00,Wunderground v.1.15,2013-02-24 23:07:00,
2013-02-24 17:12:00,56.9,34.6,24.50,ESE,114,2.0,2.0,43,0.00,,,0.00,Wunderground v.1.15,2013-02-24 23:12:00,
2013-02-24 17:17:00,56.9,34.6,24.50,SE,124,0.0,2.0,43,0.00,,,0.00,Wunderground v.1.15,2013-02-24 23:17:00,
2013-02-24 17:22:00,56.6,34.3,24.50,SSE,152,0.0,4.0,43,0.00,,,0.00,Wunderground v.1.15,2013-02-24 23:22:00,
2013-02-24 17:27:00,56.4,34.2,24.36,SSE,164,0.0,4.0,43,0.00,,,0.00,Wunderground v.1.15,2013-02-24 23:27:00,
2013-02-24 17:33:00,56.2,34.0,24.36,South,174,0.0,1.0,43,0.00,,,0.00,Wunderground v.1.15,2013-02-24 23:33:00,
2013-02-24 17:38:00,56.1,34.5,24.36,SSE,164,0.0,1.0,44,0.00,,,0.00,Wunderground v.1.15,2013-02-24 23:38:00,
2013-02-24 17:43:00,55.8,34.2,24.36,SSE,160,0.0,1.0,44,0.00,,,0.00,Wunderground v.1.15,2013-02-24 23:43:00,
2013-02-24 17:48:00,55.5,33.9,24.36,ENE,76,1.0,1.0,44,0.00,,,0.00,Wunderground v.1.15,2013-02-24 23:48:00,
2013-02-24 17:53:00,55.2,33.6,24.38,ENE,77,0.0,4.0,44,0.00,,,0.00,Wunderground v.1.15,2013-02-24 23:53:00,
2013-02-24 17:58:00,54.9,33.9,24.38,ENE,77,0.0,4.0,45,0.00,,,0.00,Wunderground v.1.15,2013-02-24 23:58:00,
2013-02-24 18:03:00,54.6,33.7,24.40,SSE,150,0.0,0.0,45,0.00,,,0.00,Wunderground v.1.15,2013-02-25 00:03:00,
2013-02-24 18:08:00,54.4,33.5,24.55,SSE,150,0.0,0.0,45,0.00,,,0.00,Wunderground v.1.15,2013-02-25 00:08:00,
2013-02-24 18:13:00,54.0,33.7,24.55,ENE,64,0.0,1.0,46,0.00,,,0.00,Wunderground v.1.15,2013-02-25 00:13:00,
2013-02-24 18:18:00,53.7,33.4,24.55,East,100,0.0,2.0,46,0.00,,,0.00,Wunderground v.1.15,2013-02-25 00:18:00,
2013-02-24 18:23:00,53.3,33.6,24.55,SSW,204,0.0,2.0,47,0.00,,,0.00,Wunderground v.1.15,2013-02-25 00:23:00,
2013-02-24 18:28:00,53.1,33.4,24.55,WSW,238,0.0,3.0,47,0.00,,,0.00,Wunderground v.1.15,2013-02-25 00:28:00,
2013-02-24 18:33:00,52.9,33.7,24.55,North,5,0.0,5.0,48,0.00,,,0.00,Wunderground v.1.15,2013-02-25 00:33:00,
2013-02-24 18:38:00,52.7,33.0,24.55,ESE,122,0.0,5.0,47,0.00,,,0.00,Wunderground v.1.15,2013-02-25 00:38:00,
2013-02-24 18:43:00,52.5,33.4,24.55,SW,223,0.0,1.0,48,0.00,,,0.00,Wunderground v.1.15,2013-02-25 00:43:00,
2013-02-24 18:48:00,52.3,33.2,24.55,SSE,163,0.0,2.0,48,0.00,,,0.00,Wunderground v.1.15,2013-02-25 00:48:00,
2013-02-24 18:53:00,52.1,33.5,24.55,ESE,103,0.0,1.0,49,0.00,,,0.00,Wunderground v.1.15,2013-02-25 00:53:00,
2013-02-24 18:58:00,51.8,33.2,24.55,East,98,0.0,2.0,49,0.00,,,0.00,Wunderground v.1.15,2013-02-25 00:58:00,
2013-02-24 19:03:00,51.5,33.0,24.55,ESE,111,0.0,6.0,49,0.00,,,0.00,Wunderground v.1.15,2013-02-25 01:03:00,
2013-02-24 19:08:00,51.4,32.9,24.55,SW,224,0.0,6.0,49,0.00,,,0.00,Wunderground v.1.15,2013-02-25 01:08:00,
2013-02-24 19:12:00,51.3,33.3,24.55,SSW,205,0.0,3.0,50,0.00,,,0.00,Wunderground v.1.15,2013-02-25 01:12:00,
2013-02-24 19:17:00,51.2,33.2,24.55,NE,38,0.0,7.0,50,0.00,,,0.00,Wunderground v.1.15,2013-02-25 01:17:00,
2013-02-24 19:22:00,51.1,33.1,24.55,East,86,0.0,2.0,50,0.00,,,0.00,Wunderground v.1.15,2013-02-25 01:22:00,
2013-02-24 19:28:00,51.0,33.5,24.55,ESE,102,0.0,2.0,51,0.00,,,0.00,Wunderground v.1.15,2013-02-25 01:28:00,
2013-02-24 19:33:00,50.7,33.2,24.55,SE,146,0.0,2.0,51,0.00,,,0.00,Wunderground v.1.15,2013-02-25 01:33:00,
2013-02-24 19:38:00,50.5,33.0,24.55,SSW,192,0.0,2.0,51,0.00,,,0.00,Wunderground v.1.15,2013-02-25 01:38:00,
2013-02-24 19:43:00,50.4,33.4,24.55,WNW,303,3.0,6.0,52,0.00,,,0.00,Wunderground v.1.15,2013-02-25 01:43:00,
2013-02-24 19:48:00,50.2,33.2,24.55,SSE,151,0.0,6.0,52,0.00,,,0.00,Wunderground v.1.15,2013-02-25 01:48:00,
2013-02-24 19:53:00,50.0,33.1,22.12,West,259,0.0,3.0,52,0.00,,,0.00,Wunderground v.1.15,2013-02-25 01:53:00,
2013-02-24 19:58:00,49.8,33.3,22.12,SSE,163,0.0,3.0,53,0.00,,,0.00,Wunderground v.1.15,2013-02-25 01:58:00,
2013-02-24 20:03:00,49.7,33.2,22.12,SSW,194,1.0,2.0,53,0.00,,,0.00,Wunderground v.1.15,2013-02-25 02:03:00,
2013-02-24 20:08:00,49.6,33.2,22.12,SSE,158,0.0,4.0,53,0.00,,,0.00,Wunderground v.1.15,2013-02-25 02:08:00,
2013-02-24 20:13:00,49.5,33.1,22.12,SSE,158,0.0,0.0,53,0.00,,,0.00,Wunderground v.1.15,2013-02-25 02:13:00,
2013-02-24 20:18:00,49.3,33.3,22.12,South,186,0.0,4.0,54,0.00,,,0.00,Wunderground v.1.15,2013-02-25 02:18:00,
2013-02-24 20:23:00,49.1,33.2,22.12,SSW,207,0.0,1.0,54,0.00,,,0.00,Wunderground v.1.15,2013-02-25 02:23:00,
2013-02-24 20:28:00,48.9,33.4,22.12,SW,221,0.0,3.0,55,0.00,,,0.00,Wunderground v.1.15,2013-02-25 02:28:00,
2013-02-24 20:33:00,48.7,33.2,22.12,SSE,157,0.0,1.0,55,0.00,,,0.00,Wunderground v.1.15,2013-02-25 02:33:00,
2013-02-24 20:38:00,48.5,33.1,22.12,SSE,164,0.0,1.0,55,0.00,,,0.00,Wunderground v.1.15,2013-02-25 02:38:00,
2013-02-24 20:43:00,48.3,33.3,22.12,SSE,150,0.0,3.0,56,0.00,,,0.00,Wunderground v.1.15,2013-02-25 02:43:00,
2013-02-24 20:48:00,48.1,33.1,22.12,South,173,1.0,3.0,56,0.00,,,0.00,Wunderground v.1.15,2013-02-25 02:48:00,
2013-02-24 20:53:00,47.8,33.3,22.12,SSE,152,0.0,1.0,57,0.00,,,0.00,Wunderground v.1.15,2013-02-25 02:53:00,
2013-02-24 20:58:00,47.7,33.2,22.12,South,175,0.0,1.0,57,0.00,,,0.00,Wunderground v.1.15,2013-02-25 02:58:00,
2013-02-24 21:03:00,47.4,33.4,22.12,South,173,0.0,0.0,58,0.00,,,0.00,Wunderground v.1.15,2013-02-25 03:03:00,
2013-02-24 21:08:00,47.3,33.3,22.12,SE,144,0.0,1.0,58,0.00,,,0.00,Wunderground v.1.15,2013-02-25 03:08:00,
2013-02-24 21:13:00,47.2,33.2,22.12,SW,235,0.0,1.0,58,0.00,,,0.00,Wunderground v.1.15,2013-02-25 03:13:00,
2013-02-24 21:18:00,47.0,33.0,22.12,SW,235,0.0,1.0,58,0.00,,,0.00,Wunderground v.1.15,2013-02-25 03:18:00,
2013-02-24 21:23:00,46.9,33.3,22.12,ESE,104,0.0,7.0,59,0.00,,,0.00,Wunderground v.1.15,2013-02-25 03:23:00,
2013-02-24 21:28:00,46.7,33.1,22.12,NNE,19,0.0,7.0,59,0.00,,,0.00,Wunderground v.1.15,2013-02-25 03:28:00,
2013-02-24 21:33:00,46.6,33.4,22.12,ESE,121,0.0,2.0,60,0.00,,,0.00,Wunderground v.1.15,2013-02-25 03:33:00,
2013-02-24 21:38:00,46.5,33.4,22.12,ESE,111,0.0,4.0,60,0.00,,,0.00,Wunderground v.1.15,2013-02-25 03:38:00,
2013-02-24 21:43:00,46.4,33.3,22.12,SSW,204,0.0,1.0,60,0.00,,,0.00,Wunderground v.1.15,2013-02-25 03:43:00,
2013-02-24 21:48:00,46.3,33.2,22.12,WSW,252,0.0,2.0,60,0.00,,,0.00,Wunderground v.1.15,2013-02-25 03:48:00,
2013-02-24 21:53:00,46.2,33.1,22.12,ENE,76,0.0,1.0,60,0.00,,,0.00,Wunderground v.1.15,2013-02-25 03:53:00,
2013-02-24 21:58:00,46.2,33.1,22.12,NE,54,0.0,1.0,60,0.00,,,0.00,Wunderground v.1.15,2013-02-25 03:58:00,
2013-02-24 22:03:00,46.1,33.0,22.12,NE,53,0.0,2.0,60,0.00,,,0.00,Wunderground v.1.15,2013-02-25 04:03:00,
2013-02-24 22:08:00,46.0,32.9,22.12,ENE,60,0.0,2.0,60,0.00,,,0.00,Wunderground v.1.15,2013-02-25 04:08:00,
2013-02-24 22:13:00,46.0,33.3,22.12,NE,53,1.0,1.0,61,0.00,,,0.00,Wunderground v.1.15,2013-02-25 04:13:00,
2013-02-24 22:18:00,45.9,32.8,22.12,ENE,74,0.0,1.0,60,0.00,,,0.00,Wunderground v.1.15,2013-02-25 04:18:00,
2013-02-24 22:23:00,45.8,32.7,22.12,ESE,117,0.0,1.0,60,0.00,,,0.00,Wunderground v.1.15,2013-02-25 04:23:00,
2013-02-24 22:28:00,45.6,32.9,22.12,SE,143,0.0,1.0,61,0.00,,,0.00,Wunderground v.1.15,2013-02-25 04:28:00,
2013-02-24 22:33:00,45.5,32.8,22.12,SE,141,0.0,1.0,61,0.00,,,0.00,Wunderground v.1.15,2013-02-25 04:33:00,
2013-02-24 22:38:00,45.2,32.5,22.12,East,92,0.0,1.0,61,0.00,,,0.00,Wunderground v.1.15,2013-02-25 04:38:00,
2013-02-24 22:43:00,45.0,32.8,22.12,SSE,160,0.0,1.0,62,0.00,,,0.00,Wunderground v.1.15,2013-02-25 04:43:00,
2013-02-24 22:48:00,44.9,32.7,22.12,SSE,159,0.0,1.0,62,0.00,,,0.00,Wunderground v.1.15,2013-02-25 04:48:00,
2013-02-24 22:53:00,44.7,32.5,22.12,East,79,0.0,0.0,62,0.00,,,0.00,Wunderground v.1.15,2013-02-25 04:53:00,
2013-02-24 22:58:00,44.5,32.7,22.12,East,79,0.0,1.0,63,0.00,,,0.00,Wunderground v.1.15,2013-02-25 04:58:00,
2013-02-24 23:00:00,44.4,32.6,22.12,ENE,65,0.0,0.0,63,0.00,,,0.00,Wunderground v.1.15,2013-02-25 05:00:00,
2013-02-24 23:05:00,44.2,32.8,22.12,ENE,65,1.0,1.0,64,0.00,,,0.00,Wunderground v.1.15,2013-02-25 05:05:00,
2013-02-24 23:10:00,44.0,32.6,22.12,ENE,68,0.0,0.0,64,0.00,,,0.00,Wunderground v.1.15,2013-02-25 05:10:00,
2013-02-24 23:15:00,43.8,32.8,22.12,ESE,105,0.0,2.0,65,0.00,,,0.00,Wunderground v.1.15,2013-02-25 05:15:00,
2013-02-24 23:20:00,43.7,32.7,22.12,ESE,121,0.0,0.0,65,0.00,,,0.00,Wunderground v.1.15,2013-02-25 05:20:00,
2013-02-24 23:25:00,43.6,32.6,22.12,SE,132,0.0,1.0,65,0.00,,,0.00,Wunderground v.1.15,2013-02-25 05:25:00,
2013-02-24 23:30:00,43.5,32.5,22.12,SE,130,0.0,1.0,65,0.00,,,0.00,Wunderground v.1.15,2013-02-25 05:30:00,
2013-02-24 23:35:00,43.4,32.8,22.12,SSE,149,1.0,1.0,66,0.00,,,0.00,Wunderground v.1.15,2013-02-25 05:35:00,
2013-02-24 23:40:00,43.3,32.7,22.12,East,92,0.0,0.0,66,0.00,,,0.00,Wunderground v.1.15,2013-02-25 05:40:00,
2013-02-24 23:45:00,43.2,32.6,22.12,East,87,0.0,0.0,66,0.00,,,0.00,Wunderground v.1.15,2013-02-25 05:45:00,
2013-02-24 23:50:00,43.0,32.4,22.12,East,88,0.0,0.0,66,0.00,,,0.00,Wunderground v.1.15,2013-02-25 05:50:00,
2013-02-24 23:55:00,42.9,32.7,22.12,East,90,0.0,1.0,67,0.00,,,0.00,Wunderground v.1.15,2013-02-25 05:55:00,